Time;durP1;ratioP1;P1;durP2;ratioP2;P2;SDS_P1;SDS_P2;PMS_P1;PMS_P2;Temp;Humidity;BMP_temperature;BMP_pressure;BME280_temperature;BME280_humidity;BME280_pressure;Samples;Min_cycle;Max_cycle;Signal;HPM_P1;HPM_P2
2021/03/28 00:01:51;;;;;;;8.35;3.00;;;7.30;83.30;;;;;;4814863;29;20222;-80
2021/03/28 00:04:20;;;;;;;3.97;2.15;;;7.30;83.50;;;;;;4818024;29;20246;-81
2021/03/28 00:07:01;;;;;;;2.47;2.25;;;7.30;83.70;;;;;;4816660;29;20232;-81
2021/03/28 00:09:39;;;;;;;3.58;2.25;;;7.20;83.80;;;;;;4817075;29;20234;-81
2021/03/28 00:12:10;;;;;;;5.53;2.40;;;7.20;84.00;;;;;;4819557;29;20266;-81
2021/03/28 00:14:43;;;;;;;2.95;2.67;;;7.10;84.10;;;;;;4817311;29;20205;-81
2021/03/28 00:17:26;;;;;;;3.88;2.40;;;7.10;84.20;;;;;;4816791;29;20222;-81
2021/03/28 00:19:58;;;;;;;4.20;2.13;;;7.00;84.50;;;;;;4813681;29;20225;-80
2021/03/28 00:22:29;;;;;;;3.67;2.75;;;7.00;84.70;;;;;;4815624;29;20217;-81
2021/03/28 00:25:05;;;;;;;4.50;2.08;;;7.00;85.00;;;;;;4815666;29;20206;-81
2021/03/28 00:27:40;;;;;;;2.55;2.15;;;7.00;85.30;;;;;;4814492;29;20300;-81
2021/03/28 00:30:24;;;;;;;4.15;2.92;;;6.90;85.50;;;;;;4816025;29;20234;-80
2021/03/28 00:32:54;;;;;;;4.20;3.00;;;6.90;85.60;;;;;;4813357;29;20219;-79
2021/03/28 00:35:25;;;;;;;7.15;3.30;;;6.90;85.90;;;;;;4817427;29;20213;-79
2021/03/28 00:38:12;;;;;;;4.40;2.67;;;6.80;85.80;;;;;;4815671;29;20669;-80
2021/03/28 00:40:41;;;;;;;2.80;2.33;;;6.80;86.30;;;;;;4825948;29;20206;-79
2021/03/28 00:43:14;;;;;;;3.00;2.53;;;6.70;86.40;;;;;;4826632;29;20214;-78
2021/03/28 00:45:50;;;;;;;8.85;2.85;;;6.60;86.70;;;;;;4819470;29;20244;-79
2021/03/28 00:48:20;;;;;;;4.93;1.90;;;6.50;87.60;;;;;;4813557;29;20240;-80
2021/03/28 00:50:50;;;;;;;4.80;3.15;;;6.50;87.80;;;;;;4812704;29;20225;-80
2021/03/28 00:53:33;;;;;;;3.47;3.00;;;6.40;88.30;;;;;;4813027;29;20251;-81
2021/03/28 00:56:03;;;;;;;2.83;2.53;;;6.40;88.80;;;;;;4808911;29;20599;-80
2021/03/28 00:58:44;;;;;;;4.97;2.63;;;6.30;89.10;;;;;;4809002;29;20233;-80
2021/03/28 01:01:33;;;;;;;4.32;2.47;;;6.30;89.50;;;;;;4809193;29;20215;-81
2021/03/28 01:04:42;;;;;;;5.05;3.00;;;6.30;89.80;;;;;;4807008;29;20249;-81
2021/03/28 01:07:17;;;;;;;3.67;2.78;;;6.20;90.00;;;;;;4787929;30;20274;-81
2021/03/28 01:10:16;;;;;;;7.05;2.92;;;6.10;90.00;;;;;;4806662;29;20217;-81
2021/03/28 01:13:28;;;;;;;3.90;3.25;;;6.00;90.20;;;;;;4807735;29;20221;-81
2021/03/28 01:16:43;;;;;;;5.30;2.90;;;5.90;90.60;;;;;;4808567;29;20692;-81
2021/03/28 01:19:34;;;;;;;2.65;2.45;;;5.60;91.10;;;;;;4808515;29;20271;-81
2021/03/28 01:22:06;;;;;;;3.40;3.00;;;5.60;91.30;;;;;;4808208;29;20306;-81
2021/03/28 01:24:41;;;;;;;3.88;2.75;;;5.70;91.20;;;;;;4808304;29;20218;-81
2021/03/28 01:27:20;;;;;;;6.25;3.47;;;5.80;91.20;;;;;;4808171;29;20245;-80
2021/03/28 01:29:50;;;;;;;3.60;2.33;;;5.80;91.20;;;;;;4808807;29;20227;-81
2021/03/28 01:32:25;;;;;;;5.95;3.05;;;5.70;91.20;;;;;;4807458;29;20246;-81
2021/03/28 01:34:58;;;;;;;4.85;2.78;;;5.80;91.20;;;;;;4808965;29;20218;-81
2021/03/28 01:37:30;;;;;;;3.47;2.45;;;5.70;91.30;;;;;;4812319;29;20366;-80
2021/03/28 01:40:05;;;;;;;2.95;2.45;;;5.70;91.50;;;;;;4812478;29;20214;-81
2021/03/28 01:42:50;;;;;;;4.30;2.05;;;5.80;91.50;;;;;;4811017;29;20217;-81
2021/03/28 01:45:22;;;;;;;2.95;2.20;;;5.80;91.50;;;;;;4810796;29;20677;-81
2021/03/28 01:48:12;;;;;;;3.38;2.10;;;5.80;91.40;;;;;;4811141;29;20287;-81
2021/03/28 01:51:12;;;;;;;4.63;2.67;;;5.80;91.50;;;;;;4810720;29;20289;-80
2021/03/28 01:53:46;;;;;;;2.55;2.35;;;5.80;91.50;;;;;;4810905;29;20219;-80
2021/03/28 01:56:23;;;;;;;6.35;2.10;;;5.70;91.50;;;;;;4810852;29;20708;-80
2021/03/28 01:59:05;;;;;;;3.05;2.58;;;5.70;91.70;;;;;;4811089;29;20206;-81
2021/03/28 02:01:43;;;;;;;5.22;2.33;;;5.70;91.80;;;;;;4810545;29;20225;-81
2021/03/28 02:04:21;;;;;;;8.32;2.70;;;5.70;91.90;;;;;;4810563;29;20218;-81
2021/03/28 02:07:05;;;;;;;5.60;2.70;;;5.70;91.90;;;;;;4810488;29;20242;-81
2021/03/28 02:09:41;;;;;;;4.53;3.75;;;5.60;91.90;;;;;;4810891;29;20238;-81
2021/03/28 02:12:13;;;;;;;4.70;2.17;;;5.70;92.10;;;;;;4810584;29;20218;-81
2021/03/28 02:15:07;;;;;;;2.00;1.85;;;5.60;92.00;;;;;;4810842;29;20225;-81
2021/03/28 02:17:50;;;;;;;4.18;2.70;;;5.50;92.10;;;;;;4810596;29;20238;-81
2021/03/28 02:20:30;;;;;;;3.35;1.80;;;5.60;92.40;;;;;;4810465;29;20222;-80
2021/03/28 02:23:08;;;;;;;3.90;2.85;;;5.60;92.40;;;;;;4810314;29;20242;-81
2021/03/28 02:25:43;;;;;;;2.20;1.80;;;5.50;92.50;;;;;;4810783;29;20214;-81
2021/03/28 02:28:14;;;;;;;3.63;2.50;;;5.50;92.60;;;;;;4810637;29;20241;-79
2021/03/28 02:30:54;;;;;;;4.82;2.50;;;5.50;92.70;;;;;;4810602;29;20237;-80
2021/03/28 02:33:25;;;;;;;2.35;2.10;;;5.50;92.70;;;;;;4811105;29;20218;-80
2021/03/28 02:36:02;;;;;;;3.05;2.17;;;5.40;92.80;;;;;;4810606;29;20217;-81
2021/03/28 02:38:55;;;;;;;2.95;2.25;;;5.40;92.80;;;;;;4810476;29;20240;-82
2021/03/28 02:41:26;;;;;;;5.90;2.47;;;5.50;93.00;;;;;;4810204;29;20210;-80
2021/03/28 02:44:12;;;;;;;3.53;1.75;;;5.30;93.10;;;;;;4810559;29;20215;-81
2021/03/28 02:46:48;;;;;;;2.50;2.30;;;5.30;93.20;;;;;;4809293;29;20242;-81
2021/03/28 02:49:45;;;;;;;2.38;2.17;;;5.40;93.30;;;;;;4809810;29;20240;-81
2021/03/28 02:52:25;;;;;;;2.47;1.90;;;5.40;93.40;;;;;;4804489;29;20214;-80
2021/03/28 02:55:21;;;;;;;2.95;1.80;;;5.40;93.40;;;;;;4809842;29;20210;-81
2021/03/28 02:57:57;;;;;;;4.85;1.90;;;5.40;93.40;;;;;;4810272;29;20299;-80
2021/03/28 03:00:32;;;;;;;5.18;2.53;;;5.40;93.40;;;;;;4809923;29;20692;-80
2021/03/28 03:03:17;;;;;;;4.88;2.22;;;5.30;93.50;;;;;;4809447;29;20249;-81
2021/03/28 03:06:31;;;;;;;2.65;2.50;;;5.40;93.50;;;;;;4809533;29;20218;-81
2021/03/28 03:09:08;;;;;;;2.90;2.58;;;5.50;93.50;;;;;;4789302;30;20663;-80
2021/03/28 03:11:50;;;;;;;6.25;1.83;;;5.50;93.40;;;;;;4789076;30;20218;-81
2021/03/28 03:14:43;;;;;;;4.90;2.00;;;5.50;93.40;;;;;;4802145;29;20218;-81
2021/03/28 03:17:47;;;;;;;3.80;2.25;;;5.60;93.40;;;;;;4809712;29;20828;-80
2021/03/28 03:20:23;;;;;;;3.13;1.98;;;5.60;93.30;;;;;;4808499;29;20224;-79
2021/03/28 03:23:33;;;;;;;3.25;2.47;;;5.60;93.30;;;;;;4809262;29;20221;-81
2021/03/28 03:26:44;;;;;;;2.97;2.70;;;5.50;93.20;;;;;;4809075;29;20218;-81
2021/03/28 03:29:36;;;;;;;4.75;2.17;;;5.50;93.70;;;;;;4797782;29;20238;-81
2021/03/28 03:32:26;;;;;;;4.53;3.35;;;5.50;93.40;;;;;;4808759;29;20230;-80
2021/03/28 03:35:13;;;;;;;3.47;2.40;;;5.40;93.40;;;;;;4809644;29;20626;-79
2021/03/28 03:38:13;;;;;;;2.22;2.05;;;5.40;93.40;;;;;;4811704;29;20230;-80
2021/03/28 03:40:49;;;;;;;7.10;3.58;;;5.50;93.40;;;;;;4815129;29;20214;-79
2021/03/28 03:43:33;;;;;;;2.95;2.15;;;5.50;93.40;;;;;;4813079;29;20218;-81
2021/03/28 03:46:16;;;;;;;2.63;2.00;;;5.40;93.40;;;;;;4810268;29;20225;-81
2021/03/28 03:49:13;;;;;;;5.75;1.88;;;5.30;93.50;;;;;;4809644;29;20241;-81
2021/03/28 03:52:02;;;;;;;6.38;2.63;;;5.30;93.70;;;;;;4808462;29;20214;-81
2021/03/28 03:54:46;;;;;;;2.50;2.30;;;5.30;93.60;;;;;;4808722;29;20225;-79
2021/03/28 03:57:23;;;;;;;3.20;2.47;;;5.30;93.60;;;;;;4808718;29;20238;-81
2021/03/28 04:00:00;;;;;;;2.88;1.95;;;5.30;93.60;;;;;;4808198;29;20225;-81
2021/03/28 04:02:32;;;;;;;3.50;3.03;;;5.30;93.70;;;;;;4808200;29;20225;-79
2021/03/28 04:05:18;;;;;;;3.25;2.00;;;5.30;93.70;;;;;;4809168;29;20592;-80
2021/03/28 04:08:09;;;;;;;2.42;2.10;;;5.30;93.80;;;;;;4808624;29;20235;-81
2021/03/28 04:10:43;;;;;;;2.85;1.80;;;5.20;93.80;;;;;;4808120;29;20194;-81
2021/03/28 04:13:52;;;;;;;3.15;2.38;;;5.20;93.80;;;;;;4808839;29;20214;-81
2021/03/28 04:16:37;;;;;;;2.95;2.60;;;5.20;94.00;;;;;;4802778;29;20234;-80
2021/03/28 04:19:22;;;;;;;2.72;2.08;;;5.20;94.00;;;;;;4808162;29;20213;-81
2021/03/28 04:22:14;;;;;;;3.13;1.77;;;5.10;94.10;;;;;;4807933;29;20217;-81
2021/03/28 04:24:49;;;;;;;2.40;2.17;;;5.10;94.10;;;;;;4808226;29;20216;-81
2021/03/28 04:27:44;;;;;;;5.18;2.55;;;5.10;94.20;;;;;;4808608;29;20305;-81
2021/03/28 04:30:32;;;;;;;2.85;2.22;;;5.10;94.30;;;;;;4808247;29;20214;-81
2021/03/28 04:33:10;;;;;;;2.45;1.75;;;5.10;94.40;;;;;;4808051;29;20221;-81
2021/03/28 04:36:03;;;;;;;3.28;1.90;;;5.10;94.40;;;;;;4808326;29;20229;-81
2021/03/28 04:38:51;;;;;;;3.35;2.08;;;5.00;94.40;;;;;;4808667;29;20271;-80
2021/03/28 04:41:38;;;;;;;3.85;2.63;;;5.00;94.40;;;;;;4808358;29;20231;-80
2021/03/28 04:44:47;;;;;;;4.28;1.95;;;5.00;94.50;;;;;;4808775;29;20214;-81
2021/03/28 04:47:46;;;;;;;2.53;2.35;;;5.00;94.50;;;;;;4808487;29;20238;-80
2021/03/28 04:50:34;;;;;;;3.13;2.15;;;4.90;94.70;;;;;;4803022;29;20296;-80
2021/03/28 04:53:40;;;;;;;2.83;1.85;;;4.90;94.70;;;;;;4809319;29;20225;-81
2021/03/28 04:56:29;;;;;;;3.85;2.10;;;4.80;94.90;;;;;;4799655;29;20265;-81
2021/03/28 04:59:25;;;;;;;5.50;3.47;;;4.80;95.00;;;;;;4808229;29;20213;-81
2021/03/28 05:02:09;;;;;;;7.95;2.53;;;4.70;95.10;;;;;;4808243;29;20221;-81
2021/03/28 05:04:48;;;;;;;2.97;2.08;;;4.70;95.10;;;;;;4808354;29;20283;-81
2021/03/28 05:07:58;;;;;;;5.97;1.92;;;4.80;95.20;;;;;;4808147;29;20250;-81
2021/03/28 05:11:04;;;;;;;5.45;2.35;;;4.70;95.30;;;;;;4789751;29;20215;-81
2021/03/28 05:14:22;;;;;;;1.92;1.65;;;4.80;95.40;;;;;;4791698;30;20214;-81
2021/03/28 05:17:25;;;;;;;3.97;2.55;;;4.80;95.30;;;;;;4774032;30;20246;-81
2021/03/28 05:20:24;;;;;;;3.08;2.20;;;4.80;95.20;;;;;;4773940;30;20218;-81
2021/03/28 05:23:17;;;;;;;3.60;2.25;;;4.80;95.20;;;;;;4811584;29;20214;-81
2021/03/28 05:26:15;;;;;;;2.30;2.05;;;4.80;95.30;;;;;;4812183;29;20218;-80
2021/03/28 05:29:15;;;;;;;4.72;2.20;;;4.80;95.30;;;;;;4811512;29;20234;-81
2021/03/28 05:32:09;;;;;;;2.15;1.70;;;4.80;95.40;;;;;;4810398;29;20259;-81
2021/03/28 05:35:15;;;;;;;2.22;2.13;;;4.80;95.70;;;;;;4808268;29;20218;-81
2021/03/28 05:38:04;;;;;;;2.65;2.42;;;4.80;95.70;;;;;;4810407;29;20234;-81
2021/03/28 05:41:00;;;;;;;7.07;2.70;;;4.70;95.60;;;;;;4810694;29;20218;-81
2021/03/28 05:43:59;;;;;;;2.83;2.35;;;4.60;95.90;;;;;;4810458;29;20223;-81
2021/03/28 05:46:44;;;;;;;3.28;2.97;;;4.40;96.40;;;;;;4809750;29;20611;-81
2021/03/28 05:49:26;;;;;;;2.58;2.40;;;4.30;96.80;;;;;;4810051;29;20725;-80
2021/03/28 05:52:39;;;;;;;4.30;3.30;;;4.40;96.80;;;;;;4809242;29;20277;-79
2021/03/28 05:55:32;;;;;;;5.03;2.05;;;4.40;96.80;;;;;;4810448;29;20741;-81
2021/03/28 05:58:34;;;;;;;2.92;1.83;;;4.50;96.80;;;;;;4810295;29;20226;-81
2021/03/28 06:01:20;;;;;;;4.07;2.97;;;4.50;96.80;;;;;;4810276;29;20241;-79
2021/03/28 06:04:29;;;;;;;4.07;2.47;;;4.60;96.80;;;;;;4809795;29;20195;-79
2021/03/28 06:07:39;;;;;;;2.67;2.00;;;4.60;96.90;;;;;;4809461;29;20234;-79
2021/03/28 06:10:53;;;;;;;2.63;2.40;;;4.60;97.10;;;;;;4809701;29;20210;-81
2021/03/28 06:13:35;;;;;;;2.13;1.83;;;4.70;96.70;;;;;;4793966;29;20222;-78
2021/03/28 06:16:23;;;;;;;2.70;2.47;;;4.80;96.50;;;;;;4809673;29;20681;-80
2021/03/28 06:19:29;;;;;;;3.53;2.30;;;4.70;96.60;;;;;;4809470;29;20266;-81
2021/03/28 06:22:31;;;;;;;3.38;2.10;;;4.90;96.70;;;;;;4809148;29;20218;-81
2021/03/28 06:25:27;;;;;;;3.88;2.17;;;4.90;96.70;;;;;;4809921;29;20221;-78
2021/03/28 06:28:27;;;;;;;4.72;3.00;;;5.00;96.70;;;;;;4813595;29;20611;-78
2021/03/28 06:31:21;;;;;;;2.42;2.20;;;5.20;96.80;;;;;;4816576;29;20223;-78
2021/03/28 06:34:24;;;;;;;8.05;3.00;;;5.30;96.80;;;;;;4816691;29;20214;-77
2021/03/28 06:37:25;;;;;;;4.63;3.05;;;5.40;96.70;;;;;;4816481;29;20249;-79
2021/03/28 06:40:38;;;;;;;2.58;2.28;;;5.50;96.20;;;;;;4816902;29;20217;-79
2021/03/28 06:43:25;;;;;;;4.75;2.42;;;5.50;96.00;;;;;;4813683;29;20215;-78
2021/03/28 06:46:21;;;;;;;2.35;2.15;;;5.60;96.00;;;;;;4810677;29;20254;-79
2021/03/28 06:49:22;;;;;;;4.60;1.95;;;5.60;95.90;;;;;;4809901;29;20229;-81
2021/03/28 06:52:15;;;;;;;3.67;2.05;;;5.70;95.70;;;;;;4810586;29;20220;-80
2021/03/28 06:55:07;;;;;;;2.47;1.65;;;5.80;95.50;;;;;;4810589;29;20218;-81
2021/03/28 06:58:06;;;;;;;3.25;2.75;;;6.00;95.40;;;;;;4809832;29;20234;-81
2021/03/28 07:01:04;;;;;;;3.70;2.35;;;6.10;95.00;;;;;;4802860;29;20227;-81
2021/03/28 07:03:58;;;;;;;2.33;1.75;;;6.20;95.10;;;;;;4809632;29;20277;-81
2021/03/28 07:06:32;;;;;;;2.65;2.47;;;6.30;95.00;;;;;;4810444;29;20242;-81
2021/03/28 07:09:17;;;;;;;3.90;3.40;;;6.30;94.90;;;;;;4809925;29;20730;-81
2021/03/28 07:11:55;;;;;;;3.72;3.00;;;6.40;94.60;;;;;;4809415;29;20214;-81
2021/03/28 07:15:16;;;;;;;6.53;2.33;;;6.60;94.80;;;;;;4809846;29;20248;-81
2021/03/28 07:18:13;;;;;;;6.63;2.65;;;6.80;94.50;;;;;;4811034;29;20242;-80
2021/03/28 07:21:08;;;;;;;2.55;2.22;;;7.00;94.00;;;;;;4810620;29;20214;-81
2021/03/28 07:23:52;;;;;;;3.75;2.10;;;7.30;93.80;;;;;;4809948;29;20248;-81
2021/03/28 07:26:34;;;;;;;3.25;2.00;;;7.40;93.40;;;;;;4810616;29;20373;-81
2021/03/28 07:29:48;;;;;;;3.47;1.77;;;7.60;93.00;;;;;;4811059;29;20239;-81
2021/03/28 07:32:39;;;;;;;3.88;2.40;;;7.70;92.70;;;;;;4793990;29;20282;-81
2021/03/28 07:35:38;;;;;;;2.42;1.92;;;7.90;92.40;;;;;;4809926;29;20214;-81
2021/03/28 07:38:47;;;;;;;3.50;2.05;;;8.00;91.80;;;;;;4810140;29;20245;-81
2021/03/28 07:41:36;;;;;;;4.25;2.83;;;8.00;92.10;;;;;;4809798;29;20224;-81
2021/03/28 07:44:33;;;;;;;6.55;2.20;;;8.20;93.10;;;;;;4809547;29;20225;-81
2021/03/28 07:47:24;;;;;;;1.95;1.85;;;8.20;92.70;;;;;;4809712;29;20605;-81
2021/03/28 07:50:14;;;;;;;3.83;2.97;;;8.30;92.60;;;;;;4809511;29;20707;-81
2021/03/28 07:53:04;;;;;;;4.95;2.72;;;8.50;91.70;;;;;;4798450;29;20214;-81
2021/03/28 07:55:31;;;;;;;3.25;2.75;;;8.70;91.30;;;;;;4808653;29;20271;-82
2021/03/28 07:58:23;;;;;;;2.40;2.20;;;8.80;91.00;;;;;;4809599;29;20234;-82
2021/03/28 08:01:24;;;;;;;3.28;1.92;;;8.90;90.60;;;;;;4810570;29;20215;-81
2021/03/28 08:04:19;;;;;;;2.58;2.13;;;9.00;91.10;;;;;;4819274;29;20217;-81
2021/03/28 08:07:05;;;;;;;5.03;3.33;;;9.10;91.10;;;;;;4819157;29;20230;-81
2021/03/28 08:09:56;;;;;;;4.55;2.70;;;9.30;90.70;;;;;;4819172;29;20222;-81
2021/03/28 08:12:45;;;;;;;3.10;2.90;;;9.60;90.60;;;;;;4818062;29;20207;-81
2021/03/28 08:15:37;;;;;;;2.47;1.85;;;9.70;89.40;;;;;;4818686;29;20218;-81
2021/03/28 08:18:23;;;;;;;2.90;2.20;;;9.80;87.80;;;;;;4814713;29;20231;-81
2021/03/28 08:21:00;;;;;;;2.97;2.20;;;9.80;87.00;;;;;;4819213;29;20214;-82
2021/03/28 08:24:00;;;;;;;3.13;2.42;;;9.80;86.40;;;;;;4819327;29;20212;-82
2021/03/28 08:26:41;;;;;;;2.67;2.50;;;9.90;87.00;;;;;;4818496;29;20230;-81
2021/03/28 08:29:44;;;;;;;4.57;2.25;;;9.90;86.70;;;;;;4819752;29;20264;-80
2021/03/28 08:32:39;;;;;;;3.13;1.67;;;9.90;86.60;;;;;;4816703;29;20214;-81
2021/03/28 08:35:19;;;;;;;3.13;2.38;;;9.80;86.50;;;;;;4795877;29;20207;-80
2021/03/28 08:38:17;;;;;;;2.40;1.83;;;9.80;87.20;;;;;;4816979;29;20232;-80
2021/03/28 08:41:12;;;;;;;2.65;2.00;;;9.90;87.10;;;;;;4816663;29;20218;-81
2021/03/28 08:44:00;;;;;;;5.50;2.15;;;10.00;86.20;;;;;;4816796;29;20267;-81
2021/03/28 08:46:48;;;;;;;5.27;2.10;;;10.00;86.90;;;;;;4822632;29;20253;-81
2021/03/28 08:49:20;;;;;;;6.72;2.85;;;10.10;87.10;;;;;;4823003;29;20487;-81
2021/03/28 08:52:17;;;;;;;4.33;2.40;;;10.20;86.50;;;;;;4821839;29;20217;-80
2021/03/28 08:54:56;;;;;;;6.55;2.30;;;10.30;86.00;;;;;;4819897;29;20462;-81
2021/03/28 08:57:36;;;;;;;3.87;1.97;;;10.40;86.10;;;;;;4812567;29;20239;-79
2021/03/28 09:00:22;;;;;;;2.80;1.77;;;10.40;86.10;;;;;;4812988;29;20470;-80
2021/03/28 09:02:58;;;;;;;4.20;1.70;;;10.50;83.80;;;;;;4812567;29;20463;-81
2021/03/28 09:05:44;;;;;;;3.60;2.20;;;10.60;82.60;;;;;;4813715;29;20457;-81
2021/03/28 09:08:25;;;;;;;4.67;2.10;;;10.60;82.30;;;;;;4813376;29;20481;-81
2021/03/28 09:11:31;;;;;;;2.80;1.73;;;10.70;81.20;;;;;;4813064;29;20502;-81
2021/03/28 09:14:13;;;;;;;3.30;1.40;;;10.70;81.20;;;;;;4812601;29;20487;-80
2021/03/28 09:16:49;;;;;;;2.50;1.50;;;10.80;80.80;;;;;;4813457;29;20485;-81
2021/03/28 09:19:20;;;;;;;10.10;2.50;;;10.90;79.50;;;;;;4812992;29;20467;-81
2021/03/28 09:21:59;;;;;;;3.70;2.00;;;10.90;79.40;;;;;;4814855;29;20822;-81
2021/03/28 09:24:37;;;;;;;6.30;2.90;;;10.90;76.70;;;;;;4817417;29;20521;-79
2021/03/28 09:27:31;;;;;;;2.03;1.50;;;11.00;76.90;;;;;;4825170;29;20489;-80
2021/03/28 09:30:15;;;;;;;3.67;1.47;;;11.20;77.50;;;;;;4821659;29;20496;-81
2021/03/28 09:33:03;;;;;;;1.90;1.77;;;11.20;73.40;;;;;;4820456;29;20528;-81
2021/03/28 09:36:01;;;;;;;3.90;1.80;;;11.30;71.80;;;;;;4814043;29;20466;-81
2021/03/28 09:38:51;;;;;;;1.53;1.33;;;11.40;70.10;;;;;;4790393;29;20476;-79
2021/03/28 09:41:36;;;;;;;3.13;1.23;;;11.50;67.90;;;;;;4812604;29;20471;-81
2021/03/28 09:44:14;;;;;;;3.40;1.83;;;11.40;69.90;;;;;;4812900;29;20476;-81
2021/03/28 09:46:48;;;;;;;3.10;1.27;;;11.40;71.20;;;;;;4812194;29;20471;-81
2021/03/28 09:49:39;;;;;;;2.90;1.80;;;11.50;70.20;;;;;;4813312;29;20498;-82
2021/03/28 09:52:36;;;;;;;2.97;2.03;;;11.50;68.00;;;;;;4813622;29;20471;-82
2021/03/28 09:55:39;;;;;;;1.90;1.43;;;11.80;68.40;;;;;;4813017;29;20462;-82
2021/03/28 09:58:28;;;;;;;3.70;2.37;;;11.80;69.20;;;;;;4812569;29;21013;-82
2021/03/28 10:01:05;;;;;;;1.67;1.47;;;11.80;66.30;;;;;;4813443;29;20467;-82
2021/03/28 10:03:37;;;;;;;4.27;2.20;;;12.00;68.60;;;;;;4812781;29;21036;-82
2021/03/28 10:06:05;;;;;;;5.90;2.77;;;12.10;68.00;;;;;;4825050;29;20549;-81
2021/03/28 10:08:36;;;;;;;1.80;1.70;;;12.10;67.00;;;;;;4830776;29;20506;-80
2021/03/28 10:11:17;;;;;;;4.27;1.80;;;12.30;67.20;;;;;;4831151;29;20938;-80
2021/03/28 10:14:12;;;;;;;3.00;1.53;;;12.40;67.60;;;;;;4830856;29;20449;-81
2021/03/28 10:16:46;;;;;;;3.53;1.73;;;12.50;67.00;;;;;;4819923;29;20479;-81
2021/03/28 10:19:22;;;;;;;4.47;1.90;;;12.60;67.00;;;;;;4816924;29;20599;-83
2021/03/28 10:22:07;;;;;;;3.07;1.80;;;12.70;65.80;;;;;;4820958;29;20574;-80
2021/03/28 10:25:06;;;;;;;3.60;1.47;;;12.90;63.90;;;;;;4819418;29;20464;-80
2021/03/28 10:28:01;;;;;;;2.70;1.77;;;13.00;63.50;;;;;;4816778;29;20486;-80
2021/03/28 10:30:37;;;;;;;3.23;2.37;;;13.10;63.50;;;;;;4821041;29;20495;-79
2021/03/28 10:33:18;;;;;;;2.00;1.53;;;13.10;62.90;;;;;;4820387;29;20451;-80
2021/03/28 10:35:57;;;;;;;2.50;1.50;;;13.30;62.80;;;;;;4820760;29;20531;-80
2021/03/28 10:38:49;;;;;;;2.40;1.40;;;13.30;61.70;;;;;;4820756;29;20527;-81
2021/03/28 10:41:29;;;;;;;4.60;1.67;;;13.30;60.80;;;;;;4818141;29;20466;-81
2021/03/28 10:44:15;;;;;;;1.30;1.20;;;13.30;60.70;;;;;;4819723;29;20856;-81
2021/03/28 10:47:26;;;;;;;2.30;1.70;;;13.50;60.20;;;;;;4818251;29;20840;-81
2021/03/28 10:50:29;;;;;;;4.23;2.00;;;13.60;58.80;;;;;;4817923;29;20491;-81
2021/03/28 10:53:31;;;;;;;1.57;1.47;;;13.70;58.90;;;;;;4817689;29;20462;-81
2021/03/28 10:56:37;;;;;;;2.47;1.50;;;13.80;58.40;;;;;;4819249;29;21004;-80
2021/03/28 10:59:52;;;;;;;3.37;2.07;;;13.90;58.00;;;;;;4817526;29;20455;-81
2021/03/28 11:03:05;;;;;;;4.40;2.03;;;14.00;57.60;;;;;;4819490;29;20452;-80
2021/03/28 11:06:00;;;;;;;4.10;1.93;;;14.10;57.90;;;;;;4818215;29;20452;-81
2021/03/28 11:08:44;;;;;;;2.73;1.60;;;14.40;56.60;;;;;;4818738;29;20450;-80
2021/03/28 11:11:41;;;;;;;2.33;1.90;;;14.90;56.40;;;;;;4820580;29;20466;-81
2021/03/28 11:14:40;;;;;;;3.10;1.77;;;15.40;56.20;;;;;;4821201;29;20461;-82
2021/03/28 11:17:42;;;;;;;1.53;1.43;;;15.70;54.80;;;;;;4812426;29;20465;-81
2021/03/28 11:20:29;;;;;;;3.27;1.73;;;16.10;55.50;;;;;;4812552;29;20465;-82
2021/03/28 11:23:43;;;;;;;1.53;1.40;;;16.60;54.20;;;;;;4821233;29;20462;-82
2021/03/28 11:26:43;;;;;;;3.40;2.40;;;17.00;54.00;;;;;;4806206;29;20624;-81
2021/03/28 11:29:51;;;;;;;2.20;2.00;;;17.30;53.00;;;;;;4829986;29;21010;-79
2021/03/28 11:32:25;;;;;;;3.60;2.13;;;17.40;52.60;;;;;;4829398;29;20483;-82
2021/03/28 11:35:04;;;;;;;3.67;2.10;;;17.60;52.20;;;;;;4829646;29;20462;-82
2021/03/28 11:37:38;;;;;;;4.87;2.47;;;17.80;51.40;;;;;;4828732;29;20488;-81
2021/03/28 11:40:32;;;;;;;3.77;2.00;;;18.00;51.60;;;;;;4828517;29;20439;-80
2021/03/28 11:43:23;;;;;;;2.20;1.80;;;18.20;51.00;;;;;;4829025;29;20472;-81
2021/03/28 11:45:50;;;;;;;4.00;2.30;;;18.50;50.60;;;;;;4828638;29;20469;-81
2021/03/28 11:48:25;;;;;;;1.87;1.40;;;18.70;50.50;;;;;;4828943;29;20521;-82
2021/03/28 11:50:55;;;;;;;3.43;2.20;;;18.90;50.10;;;;;;4829042;29;20465;-80
2021/03/28 11:53:32;;;;;;;1.60;1.50;;;19.00;50.20;;;;;;4829132;29;20470;-79
2021/03/28 11:56:00;;;;;;;3.90;2.17;;;19.40;50.00;;;;;;4829562;29;20531;-81
2021/03/28 11:58:57;;;;;;;8.00;2.20;;;19.80;49.20;;;;;;4829056;29;20466;-81
2021/03/28 12:02:03;;;;;;;1.90;1.70;;;20.40;48.20;;;;;;4828599;29;20462;-82
2021/03/28 12:04:32;;;;;;;3.00;1.90;;;20.90;47.00;;;;;;4829215;29;20881;-81
2021/03/28 12:07:13;;;;;;;3.80;2.27;;;21.30;44.10;;;;;;4829472;29;20526;-80
2021/03/28 12:09:43;;;;;;;3.70;1.80;;;21.30;44.00;;;;;;4826702;29;20985;-80
2021/03/28 12:12:21;;;;;;;1.67;1.57;;;21.10;42.50;;;;;;4819222;29;20517;-80
2021/03/28 12:14:47;;;;;;;4.13;2.10;;;20.90;43.30;;;;;;4815947;29;20515;-81
2021/03/28 12:17:19;;;;;;;2.23;1.83;;;20.70;42.70;;;;;;4819406;29;20481;-82
2021/03/28 12:19:53;;;;;;;3.37;3.07;;;20.60;42.90;;;;;;4822040;29;20491;-80
2021/03/28 12:22:25;;;;;;;1.87;1.37;;;20.60;42.50;;;;;;4841420;29;20438;-78
2021/03/28 12:25:02;;;;;;;2.73;2.10;;;20.60;42.20;;;;;;4846121;29;20437;-81
2021/03/28 12:27:36;;;;;;;2.30;1.53;;;20.90;43.10;;;;;;4845336;29;20534;-78
2021/03/28 12:30:03;;;;;;;1.90;1.53;;;20.80;42.00;;;;;;4841168;29;21282;-82
2021/03/28 12:32:56;;;;;;;3.07;1.27;;;21.00;44.30;;;;;;4830289;29;20493;-82
2021/03/28 12:35:55;;;;;;;1.90;1.80;;;21.30;42.40;;;;;;4830968;29;20819;-81
2021/03/28 12:38:52;;;;;;;4.57;2.40;;;21.30;42.00;;;;;;4815650;29;20490;-81
2021/03/28 12:41:31;;;;;;;3.17;2.23;;;21.40;41.90;;;;;;4829380;29;20484;-81
2021/03/28 12:44:15;;;;;;;1.57;1.47;;;21.40;42.10;;;;;;4829460;29;20471;-82
2021/03/28 12:47:03;;;;;;;3.40;1.70;;;21.60;41.80;;;;;;4827747;29;20852;-82
2021/03/28 12:49:34;;;;;;;1.53;1.37;;;21.90;41.90;;;;;;4818364;29;20494;-84
2021/03/28 12:52:16;;;;;;;3.33;1.50;;;22.20;41.30;;;;;;4821743;29;20458;-84
2021/03/28 12:55:08;;;;;;;3.60;1.53;;;22.70;40.20;;;;;;4814368;29;20470;-85
2021/03/28 12:57:37;;;;;;;2.23;1.70;;;23.00;39.20;;;;;;4811355;29;20484;-83
2021/03/28 13:00:16;;;;;;;3.30;1.40;;;23.00;39.30;;;;;;4822084;29;20460;-83
2021/03/28 13:02:43;;;;;;;2.40;2.20;;;22.90;39.00;;;;;;4820264;29;20869;-83
2021/03/28 13:05:26;;;;;;;3.00;2.63;;;23.10;38.70;;;;;;4819608;29;20466;-82
2021/03/28 13:07:57;;;;;;;2.60;2.03;;;23.50;39.10;;;;;;4820232;29;20607;-84
2021/03/28 13:10:29;;;;;;;3.70;2.53;;;23.50;36.90;;;;;;4820329;29;20501;-83
2021/03/28 13:12:59;;;;;;;2.70;1.60;;;23.50;37.40;;;;;;4824649;29;20453;-82
2021/03/28 13:15:35;;;;;;;2.90;2.03;;;23.60;37.40;;;;;;4822009;29;20478;-84
2021/03/28 13:19:00;;;;;;;2.67;1.80;;;23.70;37.50;;;;;;4819474;29;20487;-85
2021/03/28 13:21:28;;;;;;;3.43;2.40;;;23.70;37.10;;;;;;4808334;29;20634;-84
2021/03/28 13:24:02;;;;;;;2.93;2.50;;;23.30;36.40;;;;;;4810644;29;20466;-85
2021/03/28 13:26:32;;;;;;;1.83;1.73;;;22.70;36.40;;;;;;4810804;29;20546;-85
2021/03/28 13:29:06;;;;;;;6.57;1.70;;;22.50;36.90;;;;;;4811548;29;20920;-85
2021/03/28 13:31:39;;;;;;;2.13;1.90;;;22.80;37.90;;;;;;4814507;29;20462;-81
2021/03/28 13:34:20;;;;;;;3.00;1.90;;;23.10;36.50;;;;;;4816394;29;20475;-82
2021/03/28 13:36:59;;;;;;;2.10;1.90;;;23.20;36.40;;;;;;4815542;29;20497;-83
2021/03/28 13:39:27;;;;;;;4.33;1.77;;;23.30;35.80;;;;;;4820954;29;20464;-80
2021/03/28 13:42:23;;;;;;;3.87;2.13;;;23.50;35.80;;;;;;4821248;29;21061;-80
2021/03/28 13:45:02;;;;;;;2.20;1.97;;;23.80;35.90;;;;;;4809737;29;20475;-82
2021/03/28 13:47:43;;;;;;;4.33;2.00;;;24.00;35.30;;;;;;4819575;29;20555;-80
2021/03/28 13:50:43;;;;;;;1.90;1.50;;;24.40;34.60;;;;;;4818837;29;20505;-79
2021/03/28 13:53:32;;;;;;;3.13;2.27;;;23.80;33.20;;;;;;4817889;29;20469;-79
2021/03/28 13:56:26;;;;;;;2.60;1.73;;;23.40;35.00;;;;;;4819368;29;20458;-81
2021/03/28 13:59:07;;;;;;;2.10;1.90;;;23.30;34.80;;;;;;4818777;29;20507;-80
2021/03/28 14:01:44;;;;;;;1.67;1.57;;;23.60;34.80;;;;;;4818999;29;20467;-81
2021/03/28 14:04:22;;;;;;;2.57;1.70;;;24.00;35.00;;;;;;4817854;29;20546;-80
2021/03/28 14:07:02;;;;;;;2.07;1.87;;;24.40;34.10;;;;;;4818171;29;20526;-80
2021/03/28 14:09:32;;;;;;;2.77;1.33;;;24.50;34.20;;;;;;4816807;29;20507;-80
2021/03/28 14:12:01;;;;;;;1.63;1.53;;;24.70;34.10;;;;;;4817547;29;20462;-80
2021/03/28 14:14:31;;;;;;;2.60;1.57;;;25.10;34.10;;;;;;4818449;29;20528;-80
2021/03/28 14:17:03;;;;;;;2.53;1.63;;;25.20;33.00;;;;;;4819573;29;20556;-80
2021/03/28 14:19:35;;;;;;;2.40;1.57;;;25.00;32.80;;;;;;4819388;29;20456;-79
2021/03/28 14:22:14;;;;;;;1.70;1.50;;;24.90;33.10;;;;;;4817740;29;20536;-80
2021/03/28 14:24:41;;;;;;;2.17;1.90;;;24.60;33.00;;;;;;4820203;29;20473;-79
2021/03/28 14:27:24;;;;;;;2.33;1.73;;;24.40;32.80;;;;;;4818821;29;20515;-80
2021/03/28 14:30:00;;;;;;;1.93;1.50;;;24.10;33.20;;;;;;4818308;29;20497;-82
2021/03/28 14:32:34;;;;;;;3.13;2.30;;;23.90;33.60;;;;;;4819080;29;20462;-84